sensor_id;sensor_type;location;lat;lon;timestamp;noise_LAeq;noise_LA_min;noise_LA_max;noise_LA01;noise_LA95
41704;Laerm;861;48.808;9.006;2024-03-23T00:54:32;37.74;36.36;39.18;;
41704;Laerm;861;48.808;9.006;2024-03-23T00:56:59;37.75;36.27;38.95;;
41704;Laerm;861;48.808;9.006;2024-03-23T00:59:26;37.76;36.22;39.14;;
41704;Laerm;861;48.808;9.006;2024-03-23T01:01:56;37.73;36.14;38.93;;
41704;Laerm;861;48.808;9.006;2024-03-23T01:04:22;37.70;36.18;38.96;;
41704;Laerm;861;48.808;9.006;2024-03-23T01:06:49;37.65;36.43;38.99;;
41704;Laerm;861;48.808;9.006;2024-03-23T01:09:15;37.63;36.52;38.76;;
41704;Laerm;861;48.808;9.006;2024-03-23T01:11:42;37.64;36.29;38.80;;
41704;Laerm;861;48.808;9.006;2024-03-23T01:14:09;37.64;36.30;38.76;;
41704;Laerm;861;48.808;9.006;2024-03-23T01:16:35;37.66;36.28;38.89;;
41704;Laerm;861;48.808;9.006;2024-03-23T01:19:02;37.65;36.32;39.06;;
41704;Laerm;861;48.808;9.006;2024-03-23T01:21:28;37.63;36.43;38.92;;
41704;Laerm;861;48.808;9.006;2024-03-23T01:23:55;37.62;36.15;38.91;;
41704;Laerm;861;48.808;9.006;2024-03-23T01:26:22;37.61;36.33;38.78;;
41704;Laerm;861;48.808;9.006;2024-03-23T01:28:49;37.58;36.10;38.81;;
41704;Laerm;861;48.808;9.006;2024-03-23T01:31:15;37.62;36.16;39.10;;
41704;Laerm;861;48.808;9.006;2024-03-23T01:33:42;37.65;36.26;39.04;;
41704;Laerm;861;48.808;9.006;2024-03-23T01:36:08;37.68;36.39;38.98;;
41704;Laerm;861;48.808;9.006;2024-03-23T01:38:35;37.73;36.54;39.06;;
41704;Laerm;861;48.808;9.006;2024-03-23T01:41:02;37.76;36.48;39.02;;
41704;Laerm;861;48.808;9.006;2024-03-23T01:43:29;37.77;36.43;39.11;;
41704;Laerm;861;48.808;9.006;2024-03-23T01:45:55;37.78;36.03;40.02;;
41704;Laerm;861;48.808;9.006;2024-03-23T01:48:22;37.77;36.46;39.04;;
41704;Laerm;861;48.808;9.006;2024-03-23T01:50:49;37.78;36.30;39.89;;
41704;Laerm;861;48.808;9.006;2024-03-23T01:53:16;37.87;36.38;44.33;;
41704;Laerm;861;48.808;9.006;2024-03-23T01:55:50;37.80;36.53;39.04;;
41704;Laerm;861;48.808;9.006;2024-03-23T01:58:17;37.77;36.47;39.18;;
41704;Laerm;861;48.808;9.006;2024-03-23T02:00:43;37.74;36.27;41.54;;
41704;Laerm;861;48.808;9.006;2024-03-23T02:03:27;37.69;36.28;38.81;;
41704;Laerm;861;48.808;9.006;2024-03-23T02:05:56;37.70;36.47;40.31;;
41704;Laerm;861;48.808;9.006;2024-03-23T02:08:25;37.67;36.35;44.90;;
41704;Laerm;861;48.808;9.006;2024-03-23T02:10:52;37.67;36.43;40.35;;
41704;Laerm;861;48.808;9.006;2024-03-23T02:13:20;37.70;36.21;39.25;;
41704;Laerm;861;48.808;9.006;2024-03-23T02:15:48;37.82;36.34;44.80;;
41704;Laerm;861;48.808;9.006;2024-03-23T02:18:15;37.72;36.32;39.55;;
41704;Laerm;861;48.808;9.006;2024-03-23T02:20:42;37.72;36.29;40.09;;
41704;Laerm;861;48.808;9.006;2024-03-23T02:23:16;37.72;36.39;39.16;;
41704;Laerm;861;48.808;9.006;2024-03-23T02:25:44;37.73;36.26;39.05;;
41704;Laerm;861;48.808;9.006;2024-03-23T02:28:12;37.73;36.39;40.84;;
41704;Laerm;861;48.808;9.006;2024-03-23T02:30:39;37.69;36.49;39.10;;
41704;Laerm;861;48.808;9.006;2024-03-23T02:33:06;37.62;36.38;38.88;;
41704;Laerm;861;48.808;9.006;2024-03-23T02:35:32;37.64;36.27;41.00;;
41704;Laerm;861;48.808;9.006;2024-03-23T02:37:59;37.67;36.28;48.33;;
41704;Laerm;861;48.808;9.006;2024-03-23T02:40:26;37.68;35.97;47.23;;
41704;Laerm;861;48.808;9.006;2024-03-23T02:42:53;37.61;36.33;38.82;;
41704;Laerm;861;48.808;9.006;2024-03-23T02:45:19;37.60;36.23;38.76;;
41704;Laerm;861;48.808;9.006;2024-03-23T02:47:46;37.61;36.22;38.90;;
41704;Laerm;861;48.808;9.006;2024-03-23T02:50:12;37.65;36.38;39.73;;
41704;Laerm;861;48.808;9.006;2024-03-23T02:52:41;37.61;36.17;38.83;;
41704;Laerm;861;48.808;9.006;2024-03-23T02:55:08;37.56;36.43;39.71;;
41704;Laerm;861;48.808;9.006;2024-03-23T02:57:34;37.58;36.32;39.16;;
41704;Laerm;861;48.808;9.006;2024-03-23T03:00:01;37.61;36.38;42.75;;
41704;Laerm;861;48.808;9.006;2024-03-23T03:02:28;37.57;36.25;40.69;;
41704;Laerm;861;48.808;9.006;2024-03-23T03:04:54;37.55;36.25;38.81;;
41704;Laerm;861;48.808;9.006;2024-03-23T03:07:21;37.51;36.08;41.00;;
41704;Laerm;861;48.808;9.006;2024-03-23T03:09:47;37.56;36.31;40.18;;
41704;Laerm;861;48.808;9.006;2024-03-23T03:12:14;37.57;36.26;41.13;;
41704;Laerm;861;48.808;9.006;2024-03-23T03:14:42;37.58;36.16;41.75;;
41704;Laerm;861;48.808;9.006;2024-03-23T03:17:08;37.61;36.24;45.10;;
41704;Laerm;861;48.808;9.006;2024-03-23T03:19:35;37.55;36.31;39.14;;
41704;Laerm;861;48.808;9.006;2024-03-23T03:22:02;37.65;36.38;42.15;;
41704;Laerm;861;48.808;9.006;2024-03-23T03:24:31;37.53;36.16;39.24;;
41704;Laerm;861;48.808;9.006;2024-03-23T03:26:57;37.50;36.22;38.85;;
41704;Laerm;861;48.808;9.006;2024-03-23T03:29:25;37.54;36.20;39.08;;
41704;Laerm;861;48.808;9.006;2024-03-23T03:31:51;37.54;36.07;39.00;;
41704;Laerm;861;48.808;9.006;2024-03-23T03:34:18;37.51;36.13;39.33;;
41704;Laerm;861;48.808;9.006;2024-03-23T03:36:44;37.52;36.25;38.90;;
41704;Laerm;861;48.808;9.006;2024-03-23T03:39:11;37.51;36.05;38.72;;
41704;Laerm;861;48.808;9.006;2024-03-23T03:41:38;37.51;35.96;38.80;;
41704;Laerm;861;48.808;9.006;2024-03-23T03:44:05;37.48;36.27;38.60;;
41704;Laerm;861;48.808;9.006;2024-03-23T03:46:32;37.41;36.19;38.76;;
41704;Laerm;861;48.808;9.006;2024-03-23T03:48:58;37.39;36.20;38.71;;
41704;Laerm;861;48.808;9.006;2024-03-23T03:51:25;37.39;35.80;38.56;;
41704;Laerm;861;48.808;9.006;2024-03-23T03:53:52;37.43;35.91;38.69;;
41704;Laerm;861;48.808;9.006;2024-03-23T03:56:18;37.46;36.01;38.61;;
41704;Laerm;861;48.808;9.006;2024-03-23T03:58:45;37.43;36.12;38.75;;
41704;Laerm;861;48.808;9.006;2024-03-23T04:01:11;37.44;36.15;38.71;;
41704;Laerm;861;48.808;9.006;2024-03-23T04:03:38;37.44;36.04;38.55;;
41704;Laerm;861;48.808;9.006;2024-03-23T04:06:10;37.48;36.15;38.93;;
41704;Laerm;861;48.808;9.006;2024-03-23T04:08:36;37.53;36.01;38.78;;
41704;Laerm;861;48.808;9.006;2024-03-23T04:11:03;37.58;36.37;38.98;;
41704;Laerm;861;48.808;9.006;2024-03-23T04:13:30;37.60;36.35;38.76;;
41704;Laerm;861;48.808;9.006;2024-03-23T04:15:57;37.55;36.17;39.05;;
41704;Laerm;861;48.808;9.006;2024-03-23T04:18:24;37.46;36.01;38.51;;
41704;Laerm;861;48.808;9.006;2024-03-23T04:20:51;37.50;36.17;40.29;;
41704;Laerm;861;48.808;9.006;2024-03-23T04:23:17;37.68;36.44;38.80;;
41704;Laerm;861;48.808;9.006;2024-03-23T04:25:44;37.56;36.05;38.64;;
41704;Laerm;861;48.808;9.006;2024-03-23T04:28:11;37.27;35.76;42.82;;
41704;Laerm;861;48.808;9.006;2024-03-23T04:30:37;36.80;35.43;38.12;;
41704;Laerm;861;48.808;9.006;2024-03-23T04:33:04;36.42;35.19;37.58;;
41704;Laerm;861;48.808;9.006;2024-03-23T04:35:31;36.16;34.92;37.44;;
41704;Laerm;861;48.808;9.006;2024-03-23T04:37:58;36.00;34.82;37.20;;
41704;Laerm;861;48.808;9.006;2024-03-23T04:40:26;35.85;34.64;45.09;;
41704;Laerm;861;48.808;9.006;2024-03-23T04:42:52;35.71;34.50;36.84;;
41704;Laerm;861;48.808;9.006;2024-03-23T04:45:19;35.62;34.43;36.81;;
41704;Laerm;861;48.808;9.006;2024-03-23T04:47:46;35.58;34.46;36.71;;
41704;Laerm;861;48.808;9.006;2024-03-23T04:50:12;35.55;34.24;36.65;;
41704;Laerm;861;48.808;9.006;2024-03-23T04:52:39;35.57;34.32;36.71;;
41704;Laerm;861;48.808;9.006;2024-03-23T04:55:06;35.59;34.36;37.95;;
41704;Laerm;861;48.808;9.006;2024-03-23T04:57:33;35.66;34.56;36.83;;
41704;Laerm;861;48.808;9.006;2024-03-23T04:59:59;35.68;34.51;36.99;;
41704;Laerm;861;48.808;9.006;2024-03-23T05:02:26;35.66;34.50;36.98;;
41704;Laerm;861;48.808;9.006;2024-03-23T05:04:53;35.69;34.44;38.08;;
41704;Laerm;861;48.808;9.006;2024-03-23T05:07:20;35.75;34.56;36.91;;
41704;Laerm;861;48.808;9.006;2024-03-23T05:09:47;35.78;34.40;37.09;;
41704;Laerm;861;48.808;9.006;2024-03-23T05:12:15;35.81;34.77;36.93;;
41704;Laerm;861;48.808;9.006;2024-03-23T05:14:41;35.86;34.42;39.36;;
41704;Laerm;861;48.808;9.006;2024-03-23T05:17:08;35.92;34.64;37.12;;
41704;Laerm;861;48.808;9.006;2024-03-23T05:19:35;35.98;34.80;37.16;;
41704;Laerm;861;48.808;9.006;2024-03-23T05:22:02;35.92;34.74;36.95;;
41704;Laerm;861;48.808;9.006;2024-03-23T05:24:28;35.82;34.60;37.09;;
41704;Laerm;861;48.808;9.006;2024-03-23T05:26:55;35.73;34.48;36.80;;
41704;Laerm;861;48.808;9.006;2024-03-23T05:29:22;35.63;34.41;37.32;;
41704;Laerm;861;48.808;9.006;2024-03-23T05:31:51;35.62;34.40;36.86;;
41704;Laerm;861;48.808;9.006;2024-03-23T05:34:18;35.63;34.03;37.31;;
41704;Laerm;861;48.808;9.006;2024-03-23T05:36:45;35.61;34.20;36.83;;
41704;Laerm;861;48.808;9.006;2024-03-23T05:39:12;35.62;34.32;38.55;;
41704;Laerm;861;48.808;9.006;2024-03-23T05:41:38;35.63;34.50;36.92;;
41704;Laerm;861;48.808;9.006;2024-03-23T05:44:05;35.68;34.49;39.63;;
41704;Laerm;861;48.808;9.006;2024-03-23T05:46:32;35.57;34.38;38.97;;
41704;Laerm;861;48.808;9.006;2024-03-23T05:49:03;35.31;33.99;38.69;;
41704;Laerm;861;48.808;9.006;2024-03-23T05:51:29;35.14;33.83;39.91;;
41704;Laerm;861;48.808;9.006;2024-03-23T05:53:56;35.06;34.03;39.70;;
41704;Laerm;861;48.808;9.006;2024-03-23T05:56:22;34.96;33.86;36.44;;
41704;Laerm;861;48.808;9.006;2024-03-23T05:58:49;34.86;33.77;36.41;;
41704;Laerm;861;48.808;9.006;2024-03-23T06:01:16;34.78;33.57;37.11;;
41704;Laerm;861;48.808;9.006;2024-03-23T06:03:42;36.75;33.58;68.73;;
41704;Laerm;861;48.808;9.006;2024-03-23T06:06:10;34.68;33.48;39.35;;
41704;Laerm;861;48.808;9.006;2024-03-23T06:08:39;34.56;33.45;35.89;;
41704;Laerm;861;48.808;9.006;2024-03-23T06:11:06;34.45;33.23;36.31;;
41704;Laerm;861;48.808;9.006;2024-03-23T06:13:34;34.35;33.08;37.48;;
41704;Laerm;861;48.808;9.006;2024-03-23T06:16:02;34.26;32.93;35.41;;
41704;Laerm;861;48.808;9.006;2024-03-23T06:18:28;34.17;32.73;35.30;;
41704;Laerm;861;48.808;9.006;2024-03-23T06:20:55;34.11;32.85;37.03;;
41704;Laerm;861;48.808;9.006;2024-03-23T06:23:22;34.06;32.90;35.27;;
41704;Laerm;861;48.808;9.006;2024-03-23T06:25:48;34.01;32.79;35.15;;
41704;Laerm;861;48.808;9.006;2024-03-23T06:28:15;33.98;32.72;35.02;;
41704;Laerm;861;48.808;9.006;2024-03-23T06:30:41;33.93;32.68;35.11;;
41704;Laerm;861;48.808;9.006;2024-03-23T06:33:08;33.88;32.55;35.20;;
41704;Laerm;861;48.808;9.006;2024-03-23T06:35:35;33.82;32.55;35.23;;
41704;Laerm;861;48.808;9.006;2024-03-23T06:38:01;33.78;32.51;36.75;;
41704;Laerm;861;48.808;9.006;2024-03-23T06:40:28;33.76;32.59;34.92;;
41704;Laerm;861;48.808;9.006;2024-03-23T06:42:54;33.73;32.48;34.76;;
41704;Laerm;861;48.808;9.006;2024-03-23T06:45:21;33.74;32.58;36.04;;
41704;Laerm;861;48.808;9.006;2024-03-23T06:47:50;33.68;32.34;34.85;;
41704;Laerm;861;48.808;9.006;2024-03-23T06:50:17;33.63;32.32;34.87;;
41704;Laerm;861;48.808;9.006;2024-03-23T06:52:44;33.62;32.16;35.19;;
41704;Laerm;861;48.808;9.006;2024-03-23T06:55:11;33.58;32.41;34.85;;
41704;Laerm;861;48.808;9.006;2024-03-23T06:57:37;33.54;32.41;34.92;;
41704;Laerm;861;48.808;9.006;2024-03-23T07:00:04;33.49;32.34;34.63;;
41704;Laerm;861;48.808;9.006;2024-03-23T07:02:33;33.45;32.19;34.61;;
41704;Laerm;861;48.808;9.006;2024-03-23T07:04:59;33.44;32.32;34.88;;
41704;Laerm;861;48.808;9.006;2024-03-23T07:07:26;33.42;31.96;34.61;;
41704;Laerm;861;48.808;9.006;2024-03-23T07:09:53;33.36;32.02;34.43;;
41704;Laerm;861;48.808;9.006;2024-03-23T07:12:19;33.35;32.20;34.47;;
41704;Laerm;861;48.808;9.006;2024-03-23T07:14:47;33.30;31.86;34.44;;
41704;Laerm;861;48.808;9.006;2024-03-23T07:17:13;33.26;32.05;34.40;;
41704;Laerm;861;48.808;9.006;2024-03-23T07:19:40;33.37;32.11;36.20;;
41704;Laerm;861;48.808;9.006;2024-03-23T07:22:07;34.27;32.69;36.11;;
41704;Laerm;861;48.808;9.006;2024-03-23T07:24:33;35.55;33.73;41.36;;
41704;Laerm;861;48.808;9.006;2024-03-23T07:27:00;36.93;35.31;39.32;;
41704;Laerm;861;48.808;9.006;2024-03-23T07:29:26;37.53;36.34;38.64;;
41704;Laerm;861;48.808;9.006;2024-03-23T07:31:53;37.56;36.34;38.74;;
41704;Laerm;861;48.808;9.006;2024-03-23T07:34:19;37.39;36.02;38.61;;
41704;Laerm;861;48.808;9.006;2024-03-23T07:36:46;37.44;35.86;39.90;;
41704;Laerm;861;48.808;9.006;2024-03-23T07:39:13;37.19;35.94;38.45;;
41704;Laerm;861;48.808;9.006;2024-03-23T07:41:39;37.09;35.82;38.74;;
41704;Laerm;861;48.808;9.006;2024-03-23T07:44:06;36.74;35.12;38.32;;
41704;Laerm;861;48.808;9.006;2024-03-23T07:46:32;36.32;35.09;37.89;;
41704;Laerm;861;48.808;9.006;2024-03-23T07:48:59;35.59;33.87;50.41;;
41704;Laerm;861;48.808;9.006;2024-03-23T07:51:25;34.83;33.54;36.01;;
41704;Laerm;861;48.808;9.006;2024-03-23T07:53:52;34.48;33.23;35.55;;
41704;Laerm;861;48.808;9.006;2024-03-23T07:56:20;34.30;33.19;35.40;;
41704;Laerm;861;48.808;9.006;2024-03-23T07:58:47;34.19;33.04;35.45;;
41704;Laerm;861;48.808;9.006;2024-03-23T08:01:17;34.12;32.82;41.79;;
41704;Laerm;861;48.808;9.006;2024-03-23T08:03:46;34.01;32.85;35.38;;
41704;Laerm;861;48.808;9.006;2024-03-23T08:06:18;33.94;32.60;35.09;;
41704;Laerm;861;48.808;9.006;2024-03-23T08:08:51;33.91;32.68;35.08;;
41704;Laerm;861;48.808;9.006;2024-03-23T08:11:30;33.85;32.64;34.96;;
41704;Laerm;861;48.808;9.006;2024-03-23T08:13:58;33.79;32.53;37.85;;
41704;Laerm;861;48.808;9.006;2024-03-23T08:16:25;33.75;32.30;34.84;;
41704;Laerm;861;48.808;9.006;2024-03-23T08:18:54;33.71;32.56;34.82;;
41704;Laerm;861;48.808;9.006;2024-03-23T08:21:24;33.67;32.49;34.73;;
41704;Laerm;861;48.808;9.006;2024-03-23T08:23:52;33.65;32.38;35.02;;
41704;Laerm;861;48.808;9.006;2024-03-23T08:26:19;33.62;32.41;35.16;;
41704;Laerm;861;48.808;9.006;2024-03-23T08:28:46;33.59;32.26;34.68;;
41704;Laerm;861;48.808;9.006;2024-03-23T08:31:14;33.54;32.50;34.67;;
41704;Laerm;861;48.808;9.006;2024-03-23T08:33:43;33.50;32.32;34.63;;
41704;Laerm;861;48.808;9.006;2024-03-23T08:36:11;33.50;32.30;34.61;;
41704;Laerm;861;48.808;9.006;2024-03-23T08:38:39;33.47;32.16;34.54;;
41704;Laerm;861;48.808;9.006;2024-03-23T08:41:09;33.44;32.19;34.52;;
41704;Laerm;861;48.808;9.006;2024-03-23T08:43:40;33.42;32.10;34.49;;
41704;Laerm;861;48.808;9.006;2024-03-23T08:46:12;33.40;31.99;34.54;;
41704;Laerm;861;48.808;9.006;2024-03-23T08:48:46;33.39;32.17;34.46;;
41704;Laerm;861;48.808;9.006;2024-03-23T08:51:17;33.38;32.18;34.61;;
41704;Laerm;861;48.808;9.006;2024-03-23T08:53:44;33.36;32.23;34.41;;
41704;Laerm;861;48.808;9.006;2024-03-23T08:56:12;33.32;31.91;35.58;;
41704;Laerm;861;48.808;9.006;2024-03-23T08:58:40;33.31;32.03;34.50;;
41704;Laerm;861;48.808;9.006;2024-03-23T09:01:14;35.01;32.54;37.18;;
41704;Laerm;861;48.808;9.006;2024-03-23T09:03:41;37.66;35.26;48.18;;
41704;Laerm;861;48.808;9.006;2024-03-23T09:06:11;37.92;36.48;48.28;;
41704;Laerm;861;48.808;9.006;2024-03-23T09:08:38;38.26;36.27;48.41;;
41704;Laerm;861;48.808;9.006;2024-03-23T09:11:13;38.13;36.30;49.71;;
41704;Laerm;861;48.808;9.006;2024-03-23T09:13:40;38.06;36.52;46.85;;
41704;Laerm;861;48.808;9.006;2024-03-23T09:16:08;37.87;36.37;46.73;;
41704;Laerm;861;48.808;9.006;2024-03-23T09:18:38;38.24;36.54;50.82;;
41704;Laerm;861;48.808;9.006;2024-03-23T09:21:12;38.00;36.53;49.39;;
41704;Laerm;861;48.808;9.006;2024-03-23T09:23:43;38.19;36.51;49.14;;
41704;Laerm;861;48.808;9.006;2024-03-23T09:26:09;37.79;36.42;45.13;;
41704;Laerm;861;48.808;9.006;2024-03-23T09:28:36;40.91;36.33;60.72;;
41704;Laerm;861;48.808;9.006;2024-03-23T09:31:08;37.98;36.03;55.60;;
41704;Laerm;861;48.808;9.006;2024-03-23T09:33:36;37.84;36.12;51.52;;
41704;Laerm;861;48.808;9.006;2024-03-23T09:36:08;39.07;35.93;56.45;;
41704;Laerm;861;48.808;9.006;2024-03-23T09:38:35;38.20;35.74;56.59;;
41704;Laerm;861;48.808;9.006;2024-03-23T09:41:08;40.17;35.95;58.69;;
41704;Laerm;861;48.808;9.006;2024-03-23T09:43:35;38.43;35.90;56.35;;
41704;Laerm;861;48.808;9.006;2024-03-23T09:46:03;38.11;35.92;56.98;;
41704;Laerm;861;48.808;9.006;2024-03-23T09:48:31;40.57;35.84;60.34;;
41704;Laerm;861;48.808;9.006;2024-03-23T09:50:57;40.59;36.02;56.55;;
41704;Laerm;861;48.808;9.006;2024-03-23T09:53:24;41.11;35.90;59.54;;
41704;Laerm;861;48.808;9.006;2024-03-23T09:55:51;39.81;35.87;58.52;;
41704;Laerm;861;48.808;9.006;2024-03-23T09:58:19;37.53;35.69;49.39;;
41704;Laerm;861;48.808;9.006;2024-03-23T10:00:46;44.03;35.54;64.98;;
41704;Laerm;861;48.808;9.006;2024-03-23T10:03:12;37.64;35.67;50.96;;
41704;Laerm;861;48.808;9.006;2024-03-23T10:05:39;40.14;35.71;60.80;;
41704;Laerm;861;48.808;9.006;2024-03-23T10:10:43;41.46;35.34;62.51;;
41704;Laerm;861;48.808;9.006;2024-03-23T10:13:10;37.63;35.82;50.07;;
41704;Laerm;861;48.808;9.006;2024-03-23T10:15:39;38.21;35.71;53.60;;
41704;Laerm;861;48.808;9.006;2024-03-23T10:18:20;37.63;35.73;47.96;;
41704;Laerm;861;48.808;9.006;2024-03-23T10:23:38;37.70;35.87;52.66;;
41704;Laerm;861;48.808;9.006;2024-03-23T10:26:22;37.84;35.65;53.92;;
41704;Laerm;861;48.808;9.006;2024-03-23T10:29:00;36.98;34.85;42.68;;
41704;Laerm;861;48.808;9.006;2024-03-23T10:31:29;37.24;35.57;51.67;;
41704;Laerm;861;48.808;9.006;2024-03-23T10:33:57;38.23;35.25;55.99;;
41704;Laerm;861;48.808;9.006;2024-03-23T10:36:25;40.78;35.30;59.64;;
41704;Laerm;861;48.808;9.006;2024-03-23T10:38:56;42.50;35.41;61.06;;
41704;Laerm;861;48.808;9.006;2024-03-23T10:41:32;40.52;35.37;56.90;;
41704;Laerm;861;48.808;9.006;2024-03-23T10:44:02;37.40;35.21;51.55;;
41704;Laerm;861;48.808;9.006;2024-03-23T10:46:32;35.85;34.13;47.97;;
41704;Laerm;861;48.808;9.006;2024-03-23T10:48:58;35.10;33.94;36.70;;
41704;Laerm;861;48.808;9.006;2024-03-23T10:51:25;47.25;33.70;83.24;;
41704;Laerm;861;48.808;9.006;2024-03-23T10:53:56;34.90;33.52;58.70;;
41704;Laerm;861;48.808;9.006;2024-03-23T10:56:24;35.82;33.22;65.94;;
41704;Laerm;861;48.808;9.006;2024-03-23T10:58:52;34.43;33.29;35.60;;
41704;Laerm;861;48.808;9.006;2024-03-23T11:01:19;34.36;33.15;35.44;;
41704;Laerm;861;48.808;9.006;2024-03-23T11:03:47;34.28;32.93;35.41;;
41704;Laerm;861;48.808;9.006;2024-03-23T11:06:38;34.22;33.11;40.75;;
41704;Laerm;861;48.808;9.006;2024-03-23T11:15:12;33.98;32.64;35.15;;
41704;Laerm;861;48.808;9.006;2024-03-23T11:17:39;33.96;32.82;35.02;;
41704;Laerm;861;48.808;9.006;2024-03-23T11:20:07;33.95;32.53;35.07;;
41704;Laerm;861;48.808;9.006;2024-03-23T11:22:47;33.89;32.61;34.98;;
41704;Laerm;861;48.808;9.006;2024-03-23T11:25:23;33.81;32.65;35.06;;
41704;Laerm;861;48.808;9.006;2024-03-23T11:28:11;33.79;32.42;34.88;;
41704;Laerm;861;48.808;9.006;2024-03-23T11:30:39;33.77;32.43;34.91;;
41704;Laerm;861;48.808;9.006;2024-03-23T11:33:06;33.76;32.70;34.93;;
41704;Laerm;861;48.808;9.006;2024-03-23T11:35:38;33.76;32.52;34.91;;
41704;Laerm;861;48.808;9.006;2024-03-23T11:38:18;33.78;32.49;34.93;;
41704;Laerm;861;48.808;9.006;2024-03-23T11:40:48;33.77;32.63;34.91;;
41704;Laerm;861;48.808;9.006;2024-03-23T11:43:19;33.75;32.51;34.77;;
41704;Laerm;861;48.808;9.006;2024-03-23T11:45:52;33.74;32.46;34.88;;
41704;Laerm;861;48.808;9.006;2024-03-23T11:48:23;33.72;32.64;34.90;;
41704;Laerm;861;48.808;9.006;2024-03-23T11:50:57;33.69;32.51;34.85;;
41704;Laerm;861;48.808;9.006;2024-03-23T11:53:26;33.68;32.38;34.88;;
41704;Laerm;861;48.808;9.006;2024-03-23T11:56:00;33.68;32.53;34.80;;
41704;Laerm;861;48.808;9.006;2024-03-23T11:58:28;33.67;32.36;34.93;;
41704;Laerm;861;48.808;9.006;2024-03-23T12:01:03;33.65;32.19;34.69;;
41704;Laerm;861;48.808;9.006;2024-03-23T12:03:31;33.64;32.26;34.77;;
41704;Laerm;861;48.808;9.006;2024-03-23T12:06:04;33.62;32.51;34.72;;
41704;Laerm;861;48.808;9.006;2024-03-23T12:08:36;34.89;32.71;37.00;;
41704;Laerm;861;48.808;9.006;2024-03-23T12:11:15;37.16;34.67;43.85;;
41704;Laerm;861;48.808;9.006;2024-03-23T12:13:45;37.75;36.47;39.49;;
41704;Laerm;861;48.808;9.006;2024-03-23T12:16:19;39.25;36.53;57.49;;
41704;Laerm;861;48.808;9.006;2024-03-23T12:18:49;38.87;36.43;56.16;;
41704;Laerm;861;48.808;9.006;2024-03-23T12:21:18;38.28;36.30;50.56;;
41704;Laerm;861;48.808;9.006;2024-03-23T12:23:45;37.70;36.37;45.50;;
41704;Laerm;861;48.808;9.006;2024-03-23T12:26:13;37.66;36.29;45.31;;
41704;Laerm;861;48.808;9.006;2024-03-23T12:28:40;37.92;36.17;55.50;;
41704;Laerm;861;48.808;9.006;2024-03-23T12:31:07;37.37;35.99;45.57;;
41704;Laerm;861;48.808;9.006;2024-03-23T12:33:33;37.42;35.84;47.62;;
41704;Laerm;861;48.808;9.006;2024-03-23T12:36:00;37.34;35.96;38.78;;
41704;Laerm;861;48.808;9.006;2024-03-23T12:38:26;37.38;35.69;42.96;;
41704;Laerm;861;48.808;9.006;2024-03-23T12:40:53;37.36;35.86;40.46;;
41704;Laerm;861;48.808;9.006;2024-03-23T12:43:20;38.18;35.80;52.68;;
41704;Laerm;861;48.808;9.006;2024-03-23T12:45:50;37.58;35.92;47.03;;
41704;Laerm;861;48.808;9.006;2024-03-23T12:48:17;37.72;35.99;51.98;;
41704;Laerm;861;48.808;9.006;2024-03-23T12:50:44;37.31;35.78;46.12;;
41704;Laerm;861;48.808;9.006;2024-03-23T12:53:11;38.05;36.02;59.98;;
41704;Laerm;861;48.808;9.006;2024-03-23T12:55:38;39.52;35.99;59.86;;
41704;Laerm;861;48.808;9.006;2024-03-23T12:58:05;41.34;35.95;58.35;;
41704;Laerm;861;48.808;9.006;2024-03-23T13:00:32;42.18;35.82;63.21;;
41704;Laerm;861;48.808;9.006;2024-03-23T13:02:58;37.44;35.88;47.34;;
41704;Laerm;861;48.808;9.006;2024-03-23T13:05:25;38.90;35.69;56.64;;
41704;Laerm;861;48.808;9.006;2024-03-23T13:07:51;41.06;35.76;61.99;;
41704;Laerm;861;48.808;9.006;2024-03-23T13:10:18;38.09;35.41;54.66;;
41704;Laerm;861;48.808;9.006;2024-03-23T13:12:45;39.93;35.38;55.54;;
41704;Laerm;861;48.808;9.006;2024-03-23T13:15:12;39.29;35.38;60.80;;
41704;Laerm;861;48.808;9.006;2024-03-23T13:17:38;39.14;35.44;56.67;;
41704;Laerm;861;48.808;9.006;2024-03-23T13:20:06;39.32;35.30;58.69;;
41704;Laerm;861;48.808;9.006;2024-03-23T13:22:32;38.82;35.38;57.25;;
41704;Laerm;861;48.808;9.006;2024-03-23T13:24:59;42.40;35.35;58.92;;
41704;Laerm;861;48.808;9.006;2024-03-23T13:27:26;41.83;35.39;62.71;;
41704;Laerm;861;48.808;9.006;2024-03-23T13:29:52;41.09;35.48;59.29;;
41704;Laerm;861;48.808;9.006;2024-03-23T13:32:19;41.09;35.35;58.88;;
41704;Laerm;861;48.808;9.006;2024-03-23T13:34:45;44.37;35.28;64.54;;
41704;Laerm;861;48.808;9.006;2024-03-23T13:37:12;42.25;35.07;62.55;;
41704;Laerm;861;48.808;9.006;2024-03-23T13:39:39;44.07;35.23;63.41;;
41704;Laerm;861;48.808;9.006;2024-03-23T13:42:06;37.00;34.97;53.95;;
41704;Laerm;861;48.808;9.006;2024-03-23T13:44:33;40.19;34.87;58.90;;
41704;Laerm;861;48.808;9.006;2024-03-23T13:46:59;39.28;35.10;58.05;;
41704;Laerm;861;48.808;9.006;2024-03-23T13:49:30;42.60;35.16;76.93;;
41704;Laerm;861;48.808;9.006;2024-03-23T13:51:59;37.34;35.25;43.48;;
41704;Laerm;861;48.808;9.006;2024-03-23T13:54:27;38.02;36.63;48.80;;
41704;Laerm;861;48.808;9.006;2024-03-23T13:56:56;38.14;36.69;46.07;;
41704;Laerm;861;48.808;9.006;2024-03-23T13:59:23;43.44;34.74;78.01;;
41704;Laerm;861;48.808;9.006;2024-03-23T14:01:51;35.99;34.23;47.14;;
41704;Laerm;861;48.808;9.006;2024-03-23T14:04:18;35.32;33.93;42.31;;
41704;Laerm;861;48.808;9.006;2024-03-23T14:06:49;42.97;33.81;78.44;;
41704;Laerm;861;48.808;9.006;2024-03-23T14:46:17;33.56;32.39;35.36;;
41704;Laerm;861;48.808;9.006;2024-03-23T14:48:46;33.56;32.41;34.98;;
41704;Laerm;861;48.808;9.006;2024-03-23T14:51:13;33.56;32.32;34.96;;
41704;Laerm;861;48.808;9.006;2024-03-23T14:53:46;33.66;32.40;39.75;;
41704;Laerm;861;48.808;9.006;2024-03-23T14:56:14;33.59;32.16;36.83;;
41704;Laerm;861;48.808;9.006;2024-03-23T14:58:42;33.55;32.45;34.65;;
41704;Laerm;861;48.808;9.006;2024-03-23T15:01:10;33.56;32.36;35.96;;
41704;Laerm;861;48.808;9.006;2024-03-23T15:03:40;33.56;32.33;36.09;;
41704;Laerm;861;48.808;9.006;2024-03-23T15:06:09;33.47;32.33;37.53;;
41704;Laerm;861;48.808;9.006;2024-03-23T15:08:36;33.45;32.18;35.06;;
41704;Laerm;861;48.808;9.006;2024-03-23T15:11:04;33.34;32.12;34.90;;
41704;Laerm;861;48.808;9.006;2024-03-23T15:13:38;33.23;31.99;36.47;;
41704;Laerm;861;48.808;9.006;2024-03-23T15:16:06;35.83;32.61;40.80;;
41704;Laerm;861;48.808;9.006;2024-03-23T15:18:35;37.90;36.40;39.75;;
41704;Laerm;861;48.808;9.006;2024-03-23T15:21:04;38.17;36.62;47.69;;
41704;Laerm;861;48.808;9.006;2024-03-23T15:23:35;37.99;36.70;40.35;;
41704;Laerm;861;48.808;9.006;2024-03-23T15:26:03;38.48;36.43;52.82;;
41704;Laerm;861;48.808;9.006;2024-03-23T15:28:32;37.83;36.28;42.29;;
41704;Laerm;861;48.808;9.006;2024-03-23T15:31:11;38.03;36.40;48.21;;
41704;Laerm;861;48.808;9.006;2024-03-23T15:33:38;37.85;36.04;48.38;;
41704;Laerm;861;48.808;9.006;2024-03-23T15:36:06;38.38;35.97;54.36;;
41704;Laerm;861;48.808;9.006;2024-03-23T15:38:33;37.96;36.24;50.69;;
41704;Laerm;861;48.808;9.006;2024-03-23T15:41:01;38.41;36.07;54.12;;
41704;Laerm;861;48.808;9.006;2024-03-23T15:43:28;37.73;36.20;50.02;;
41704;Laerm;861;48.808;9.006;2024-03-23T15:46:00;37.65;36.10;43.73;;
41704;Laerm;861;48.808;9.006;2024-03-23T15:48:31;37.63;35.91;47.17;;
41704;Laerm;861;48.808;9.006;2024-03-23T15:51:03;37.48;36.05;43.08;;
41704;Laerm;861;48.808;9.006;2024-03-23T15:53:31;37.46;36.00;46.36;;
41704;Laerm;861;48.808;9.006;2024-03-23T15:56:01;38.03;35.77;53.77;;